Details From CYXC - Canadian Rockies Intl
To CYLW - Kelowna
Flight Number -
Tags Standard
Created
Modified
Stats Distance 144 nm / 266 km
Max Altitude 28,000 ft / 8,534 m
Waypoints 5
Social Downloads 1
Likes 0
Share VATSIM

Download

Looking for another format? Having issues loading an existing format? Contact us
Advertisement - Login to hide

Notes

None

Route

CYXC YXC KANEE KETTL CYLW

ID Type Via Altitude Latitude Longitude Leg Dist Tot Dist Heading (true) Name
O CYXC APT - 0 ft / 0 m 49.61222˚ -115.78194˚ - 0 nm - CANADIAN ROCKIES INTL
YXC VOR - 28,000 ft / 8,534 m 49.55427˚ -116.08830˚ 12 nm 12 nm 254° / 254° CRANBROOK VOR-DME
KANEE FIX - 28,000 ft / 8,534 m 49.81556˚ -117.44250˚ 54 nm 67 nm 287° / 286° -
KETTL FIX - 14,000 ft / 4,267 m 49.98157˚ -118.31782˚ 35 nm 102 nm 287° / 286° -
O CYLW APT - 0 ft / 0 m 49.95722˚ -119.37778˚ 40 nm 143 nm 268° / 268° Kelowna

Altitude Profile

Advertisement - Login to hide

CYXC

Details ICAO CYXC (YXC)
Name CANADIAN ROCKIES INTL
Region Canada
Timezone America/Edmonton (UTC-7.0)
Stats Elevation 3,084 ft / 940 m (AMSL)
Location 49.612121° -115.782055°
Runways 1
Magnetic Variation 14.456° E

METAR

CYXC 110800Z 00000KT 12SM OVC009 M07/M08 A3066 RMK ST8 SLP437

Decode

TAF

TAF TAF CYXC 110638Z 1107/1119 VRB03KT P6SM OVC010 TEMPO 1107/1119 OVC008 RMK NXT FCST BY 111300Z

Decode

Departure Runways

ID Width Length Bearing (true) Bearing (mag) Surface Threshold Offset Overrun Length
16 150 ft / 46 m 8,000 ft / 2,438 m 179.16° 164.70° Asphalt 780 ft / 238 m 0 ft / 0 m
34 150 ft / 46 m 8,000 ft / 2,438 m 359.16° 344.70° Asphalt 0 ft / 0 m 0 ft / 0 m

CYLW

Details ICAO CYLW (YLW)
Name Kelowna
Region Canada
Timezone America/Vancouver (UTC-8.0)
Stats Elevation 1,409 ft / 429 m (AMSL)
Location 49.956117° -119.377757°
Runways 1
Magnetic Variation 15.635° E

METAR

CYLW 110800Z AUTO 14004KT 9SM OVC022 M00/M04 A3064 RMK SLP399

Decode

TAF

TAF TAF CYLW 110638Z 1107/1119 VRB03KT P6SM OVC025 TEMPO 1107/1119 OVC020 RMK FCST BASED ON AUTO OBS. NXT FCST BY 111300Z

Decode

Destination Runways

ID Width Length Bearing (true) Bearing (mag) Surface Threshold Offset Overrun Length
16 200 ft / 61 m 7,299 ft / 2,225 m 174.89° 159.26° Asphalt 0 ft / 0 m 0 ft / 0 m
34 200 ft / 61 m 7,299 ft / 2,225 m 354.89° 339.26° Asphalt 0 ft / 0 m 0 ft / 0 m

Approach Navaids

Runway Type Ident Frequency Range Bearing (true) Bearing (mag) Slope Elevation
16 Localiser ILW 111.30 MHz 18 nm / 33 km 174.87° 159.24° - 1,049 ft / 320 m (AMSL)
16 Glidescope ILW 111.30 MHz 10 nm / 19 km 174.89° 159.25° 3.20° 1,409 ft / 429 m (AMSL)
16 DME ILW 111.30 MHz 18 nm / 33 km - - - 1,409 ft / 429 m (AMSL)

Popular Alternatives